sensor_id;sensor_type;location;lat;lon;timestamp;P1;durP1;ratioP1;P2;durP2;ratioP2
75718;SDS011;64340;48.534;-3.036;2023-12-22T00:01:10;32.78;;;8.02;;
75718;SDS011;64340;48.534;-3.036;2023-12-22T00:03:37;31.40;;;8.73;;
75718;SDS011;64340;48.534;-3.036;2023-12-22T00:06:03;28.90;;;7.68;;
75718;SDS011;64340;48.534;-3.036;2023-12-22T00:08:33;25.52;;;7.28;;
75718;SDS011;64340;48.534;-3.036;2023-12-22T00:10:59;29.13;;;7.13;;
75718;SDS011;64340;48.534;-3.036;2023-12-22T00:13:29;27.48;;;7.35;;
75718;SDS011;64340;48.534;-3.036;2023-12-22T00:15:59;24.02;;;7.13;;
75718;SDS011;64340;48.534;-3.036;2023-12-22T00:18:28;26.80;;;7.25;;
75718;SDS011;64340;48.534;-3.036;2023-12-22T00:20:54;26.85;;;7.95;;
75718;SDS011;64340;48.534;-3.036;2023-12-22T00:23:20;22.98;;;5.90;;
75718;SDS011;64340;48.534;-3.036;2023-12-22T00:25:48;26.42;;;6.25;;
75718;SDS011;64340;48.534;-3.036;2023-12-22T00:28:20;21.67;;;5.65;;
75718;SDS011;64340;48.534;-3.036;2023-12-22T00:30:45;20.98;;;5.70;;
75718;SDS011;64340;48.534;-3.036;2023-12-22T00:33:12;19.35;;;5.32;;
75718;SDS011;64340;48.534;-3.036;2023-12-22T00:35:44;17.98;;;5.85;;
75718;SDS011;64340;48.534;-3.036;2023-12-22T00:38:10;19.92;;;5.25;;
75718;SDS011;64340;48.534;-3.036;2023-12-22T00:40:36;22.55;;;5.70;;
75718;SDS011;64340;48.534;-3.036;2023-12-22T00:43:02;19.58;;;5.32;;
75718;SDS011;64340;48.534;-3.036;2023-12-22T00:45:28;17.77;;;4.97;;
75718;SDS011;64340;48.534;-3.036;2023-12-22T00:47:54;22.75;;;4.95;;
75718;SDS011;64340;48.534;-3.036;2023-12-22T00:50:20;18.73;;;6.13;;
75718;SDS011;64340;48.534;-3.036;2023-12-22T00:52:45;17.27;;;5.03;;
75718;SDS011;64340;48.534;-3.036;2023-12-22T00:55:11;14.88;;;4.82;;
75718;SDS011;64340;48.534;-3.036;2023-12-22T00:57:37;17.13;;;5.05;;
75718;SDS011;64340;48.534;-3.036;2023-12-22T01:00:03;16.13;;;4.75;;
75718;SDS011;64340;48.534;-3.036;2023-12-22T01:02:30;15.15;;;4.00;;
75718;SDS011;64340;48.534;-3.036;2023-12-22T01:04:56;15.02;;;3.70;;
75718;SDS011;64340;48.534;-3.036;2023-12-22T01:07:22;13.00;;;3.92;;
75718;SDS011;64340;48.534;-3.036;2023-12-22T01:09:48;17.65;;;4.28;;
75718;SDS011;64340;48.534;-3.036;2023-12-22T01:12:13;16.92;;;4.00;;
75718;SDS011;64340;48.534;-3.036;2023-12-22T01:14:39;14.60;;;3.63;;
75718;SDS011;64340;48.534;-3.036;2023-12-22T01:17:05;14.18;;;3.38;;
75718;SDS011;64340;48.534;-3.036;2023-12-22T01:19:30;12.73;;;3.65;;
75718;SDS011;64340;48.534;-3.036;2023-12-22T01:21:56;16.23;;;4.53;;
75718;SDS011;64340;48.534;-3.036;2023-12-22T01:24:22;15.20;;;4.03;;
75718;SDS011;64340;48.534;-3.036;2023-12-22T01:26:47;14.43;;;4.25;;
75718;SDS011;64340;48.534;-3.036;2023-12-22T01:29:13;12.05;;;3.80;;
75718;SDS011;64340;48.534;-3.036;2023-12-22T01:31:39;10.85;;;2.78;;
75718;SDS011;64340;48.534;-3.036;2023-12-22T01:34:04;12.18;;;2.80;;
75718;SDS011;64340;48.534;-3.036;2023-12-22T01:36:30;13.90;;;2.85;;
75718;SDS011;64340;48.534;-3.036;2023-12-22T01:38:56;8.75;;;2.50;;
75718;SDS011;64340;48.534;-3.036;2023-12-22T01:41:21;9.55;;;2.92;;
75718;SDS011;64340;48.534;-3.036;2023-12-22T01:43:47;10.65;;;2.60;;
75718;SDS011;64340;48.534;-3.036;2023-12-22T01:46:13;11.18;;;3.20;;
75718;SDS011;64340;48.534;-3.036;2023-12-22T01:48:39;8.75;;;2.10;;
75718;SDS011;64340;48.534;-3.036;2023-12-22T01:51:05;10.63;;;2.33;;
75718;SDS011;64340;48.534;-3.036;2023-12-22T01:53:32;8.93;;;2.42;;
75718;SDS011;64340;48.534;-3.036;2023-12-22T01:55:59;8.13;;;2.20;;
75718;SDS011;64340;48.534;-3.036;2023-12-22T01:58:27;7.57;;;2.15;;
75718;SDS011;64340;48.534;-3.036;2023-12-22T02:00:54;6.68;;;1.90;;
75718;SDS011;64340;48.534;-3.036;2023-12-22T02:03:21;9.27;;;2.53;;
75718;SDS011;64340;48.534;-3.036;2023-12-22T02:05:47;7.00;;;2.00;;
75718;SDS011;64340;48.534;-3.036;2023-12-22T02:08:14;8.70;;;1.92;;
75718;SDS011;64340;48.534;-3.036;2023-12-22T02:10:43;8.65;;;2.35;;
75718;SDS011;64340;48.534;-3.036;2023-12-22T02:13:08;9.57;;;2.00;;
75718;SDS011;64340;48.534;-3.036;2023-12-22T02:15:34;8.13;;;2.30;;
75718;SDS011;64340;48.534;-3.036;2023-12-22T02:20:50;8.02;;;1.70;;
75718;SDS011;64340;48.534;-3.036;2023-12-22T02:23:16;8.15;;;2.58;;
75718;SDS011;64340;48.534;-3.036;2023-12-22T02:25:41;7.28;;;1.80;;
75718;SDS011;64340;48.534;-3.036;2023-12-22T02:28:07;9.57;;;1.60;;
75718;SDS011;64340;48.534;-3.036;2023-12-22T02:33:22;5.72;;;1.30;;
75718;SDS011;64340;48.534;-3.036;2023-12-22T02:35:49;5.65;;;2.00;;
75718;SDS011;64340;48.534;-3.036;2023-12-22T02:38:16;9.40;;;2.15;;
75718;SDS011;64340;48.534;-3.036;2023-12-22T02:40:43;5.07;;;1.17;;
75718;SDS011;64340;48.534;-3.036;2023-12-22T02:43:09;8.57;;;1.83;;
75718;SDS011;64340;48.534;-3.036;2023-12-22T02:45:36;5.13;;;1.63;;
75718;SDS011;64340;48.534;-3.036;2023-12-22T02:48:01;6.32;;;1.67;;
75718;SDS011;64340;48.534;-3.036;2023-12-22T02:50:27;5.57;;;1.55;;
75718;SDS011;64340;48.534;-3.036;2023-12-22T02:52:53;8.65;;;1.75;;
75718;SDS011;64340;48.534;-3.036;2023-12-22T02:55:19;7.20;;;1.60;;
75718;SDS011;64340;48.534;-3.036;2023-12-22T02:57:44;4.10;;;1.25;;
75718;SDS011;64340;48.534;-3.036;2023-12-22T03:00:10;6.60;;;1.42;;
75718;SDS011;64340;48.534;-3.036;2023-12-22T03:02:36;4.47;;;1.15;;
75718;SDS011;64340;48.534;-3.036;2023-12-22T03:05:02;5.85;;;1.33;;
75718;SDS011;64340;48.534;-3.036;2023-12-22T03:07:28;6.53;;;1.65;;
75718;SDS011;64340;48.534;-3.036;2023-12-22T03:09:54;7.55;;;1.73;;
75718;SDS011;64340;48.534;-3.036;2023-12-22T03:12:20;6.40;;;1.80;;
75718;SDS011;64340;48.534;-3.036;2023-12-22T03:14:45;6.82;;;1.25;;
75718;SDS011;64340;48.534;-3.036;2023-12-22T03:17:11;5.88;;;1.20;;
75718;SDS011;64340;48.534;-3.036;2023-12-22T03:19:37;6.03;;;1.10;;
75718;SDS011;64340;48.534;-3.036;2023-12-22T03:22:04;3.60;;;0.93;;
75718;SDS011;64340;48.534;-3.036;2023-12-22T03:24:29;3.67;;;0.93;;
75718;SDS011;64340;48.534;-3.036;2023-12-22T03:26:55;5.72;;;1.30;;
75718;SDS011;64340;48.534;-3.036;2023-12-22T03:29:21;5.75;;;1.25;;
75718;SDS011;64340;48.534;-3.036;2023-12-22T03:31:47;3.42;;;0.80;;
75718;SDS011;64340;48.534;-3.036;2023-12-22T03:34:12;5.50;;;1.20;;
75718;SDS011;64340;48.534;-3.036;2023-12-22T03:36:38;5.95;;;1.30;;
75718;SDS011;64340;48.534;-3.036;2023-12-22T03:39:04;4.85;;;1.50;;
75718;SDS011;64340;48.534;-3.036;2023-12-22T03:41:30;3.15;;;0.77;;
75718;SDS011;64340;48.534;-3.036;2023-12-22T03:43:56;5.43;;;1.13;;
75718;SDS011;64340;48.534;-3.036;2023-12-22T03:46:23;3.67;;;0.90;;
75718;SDS011;64340;48.534;-3.036;2023-12-22T03:48:52;4.40;;;0.98;;
75718;SDS011;64340;48.534;-3.036;2023-12-22T03:51:18;4.38;;;1.00;;
75718;SDS011;64340;48.534;-3.036;2023-12-22T03:53:44;5.43;;;0.90;;
75718;SDS011;64340;48.534;-3.036;2023-12-22T03:56:10;3.38;;;0.73;;
75718;SDS011;64340;48.534;-3.036;2023-12-22T03:58:36;5.18;;;0.88;;
75718;SDS011;64340;48.534;-3.036;2023-12-22T04:01:02;4.90;;;0.98;;
75718;SDS011;64340;48.534;-3.036;2023-12-22T04:03:28;4.72;;;0.90;;
75718;SDS011;64340;48.534;-3.036;2023-12-22T04:05:53;3.45;;;1.00;;
75718;SDS011;64340;48.534;-3.036;2023-12-22T04:08:19;4.88;;;0.80;;
75718;SDS011;64340;48.534;-3.036;2023-12-22T04:10:46;5.60;;;1.25;;
75718;SDS011;64340;48.534;-3.036;2023-12-22T04:13:12;3.45;;;0.60;;
75718;SDS011;64340;48.534;-3.036;2023-12-22T04:15:38;2.60;;;0.80;;
75718;SDS011;64340;48.534;-3.036;2023-12-22T04:18:03;4.75;;;1.02;;
75718;SDS011;64340;48.534;-3.036;2023-12-22T04:20:29;5.28;;;0.88;;
75718;SDS011;64340;48.534;-3.036;2023-12-22T04:22:55;5.45;;;1.02;;
75718;SDS011;64340;48.534;-3.036;2023-12-22T04:25:21;9.10;;;1.33;;
75718;SDS011;64340;48.534;-3.036;2023-12-22T04:27:48;5.97;;;0.80;;
75718;SDS011;64340;48.534;-3.036;2023-12-22T04:30:14;3.67;;;0.80;;
75718;SDS011;64340;48.534;-3.036;2023-12-22T04:32:40;3.28;;;0.88;;
75718;SDS011;64340;48.534;-3.036;2023-12-22T04:35:06;2.55;;;0.60;;
75718;SDS011;64340;48.534;-3.036;2023-12-22T04:37:32;4.63;;;0.73;;
75718;SDS011;64340;48.534;-3.036;2023-12-22T04:39:58;6.53;;;0.98;;
75718;SDS011;64340;48.534;-3.036;2023-12-22T04:42:24;2.40;;;0.57;;
75718;SDS011;64340;48.534;-3.036;2023-12-22T04:44:50;4.85;;;0.73;;
75718;SDS011;64340;48.534;-3.036;2023-12-22T04:47:17;3.35;;;0.52;;
75718;SDS011;64340;48.534;-3.036;2023-12-22T04:49:43;4.60;;;0.75;;
75718;SDS011;64340;48.534;-3.036;2023-12-22T04:52:10;3.00;;;0.73;;
75718;SDS011;64340;48.534;-3.036;2023-12-22T04:54:37;4.13;;;0.80;;
75718;SDS011;64340;48.534;-3.036;2023-12-22T04:57:03;3.85;;;0.95;;
75718;SDS011;64340;48.534;-3.036;2023-12-22T04:59:29;5.28;;;0.82;;
75718;SDS011;64340;48.534;-3.036;2023-12-22T05:01:55;2.55;;;0.70;;
75718;SDS011;64340;48.534;-3.036;2023-12-22T05:04:21;4.63;;;0.70;;
75718;SDS011;64340;48.534;-3.036;2023-12-22T05:06:47;3.85;;;0.88;;
75718;SDS011;64340;48.534;-3.036;2023-12-22T05:09:13;5.68;;;0.95;;
75718;SDS011;64340;48.534;-3.036;2023-12-22T05:11:40;3.42;;;0.60;;
75718;SDS011;64340;48.534;-3.036;2023-12-22T05:14:05;5.32;;;0.80;;
75718;SDS011;64340;48.534;-3.036;2023-12-22T05:16:31;4.30;;;0.70;;
75718;SDS011;64340;48.534;-3.036;2023-12-22T05:18:57;4.28;;;0.90;;
75718;SDS011;64340;48.534;-3.036;2023-12-22T05:21:23;6.75;;;1.23;;
75718;SDS011;64340;48.534;-3.036;2023-12-22T05:23:49;6.35;;;0.82;;
75718;SDS011;64340;48.534;-3.036;2023-12-22T05:26:19;5.47;;;1.17;;
75718;SDS011;64340;48.534;-3.036;2023-12-22T05:28:45;4.80;;;1.17;;
75718;SDS011;64340;48.534;-3.036;2023-12-22T05:31:11;5.47;;;1.10;;
75718;SDS011;64340;48.534;-3.036;2023-12-22T05:33:37;6.55;;;1.10;;
75718;SDS011;64340;48.534;-3.036;2023-12-22T05:36:03;5.90;;;1.20;;
75718;SDS011;64340;48.534;-3.036;2023-12-22T05:38:29;5.20;;;1.23;;
75718;SDS011;64340;48.534;-3.036;2023-12-22T05:40:56;5.15;;;1.10;;
75718;SDS011;64340;48.534;-3.036;2023-12-22T05:43:21;6.07;;;1.23;;
75718;SDS011;64340;48.534;-3.036;2023-12-22T05:45:47;4.45;;;0.80;;
75718;SDS011;64340;48.534;-3.036;2023-12-22T05:48:13;3.40;;;1.10;;
75718;SDS011;64340;48.534;-3.036;2023-12-22T05:50:39;5.78;;;1.30;;
75718;SDS011;64340;48.534;-3.036;2023-12-22T05:53:04;9.38;;;2.17;;
75718;SDS011;64340;48.534;-3.036;2023-12-22T05:55:30;9.75;;;2.30;;
75718;SDS011;64340;48.534;-3.036;2023-12-22T05:57:56;11.27;;;2.38;;
75718;SDS011;64340;48.534;-3.036;2023-12-22T06:00:22;11.82;;;2.47;;
75718;SDS011;64340;48.534;-3.036;2023-12-22T06:02:47;7.65;;;2.10;;
75718;SDS011;64340;48.534;-3.036;2023-12-22T06:05:13;12.75;;;2.20;;
75718;SDS011;64340;48.534;-3.036;2023-12-22T06:07:40;10.30;;;2.13;;
75718;SDS011;64340;48.534;-3.036;2023-12-22T06:10:06;10.68;;;2.45;;
75718;SDS011;64340;48.534;-3.036;2023-12-22T06:12:34;10.82;;;2.58;;
75718;SDS011;64340;48.534;-3.036;2023-12-22T06:15:00;12.38;;;2.80;;
75718;SDS011;64340;48.534;-3.036;2023-12-22T06:17:26;9.45;;;2.55;;
75718;SDS011;64340;48.534;-3.036;2023-12-22T06:19:52;10.10;;;2.33;;
75718;SDS011;64340;48.534;-3.036;2023-12-22T06:22:17;11.50;;;2.75;;
75718;SDS011;64340;48.534;-3.036;2023-12-22T06:24:43;11.93;;;2.67;;
75718;SDS011;64340;48.534;-3.036;2023-12-22T06:27:09;11.52;;;2.50;;
75718;SDS011;64340;48.534;-3.036;2023-12-22T06:29:35;12.48;;;2.92;;
75718;SDS011;64340;48.534;-3.036;2023-12-22T06:32:01;8.93;;;2.15;;
75718;SDS011;64340;48.534;-3.036;2023-12-22T06:34:27;14.88;;;3.25;;
75718;SDS011;64340;48.534;-3.036;2023-12-22T06:36:53;11.20;;;2.63;;
75718;SDS011;64340;48.534;-3.036;2023-12-22T06:39:18;9.70;;;2.15;;
75718;SDS011;64340;48.534;-3.036;2023-12-22T06:41:44;12.93;;;2.65;;
75718;SDS011;64340;48.534;-3.036;2023-12-22T06:44:10;9.30;;;2.67;;
75718;SDS011;64340;48.534;-3.036;2023-12-22T06:46:36;10.90;;;2.75;;
75718;SDS011;64340;48.534;-3.036;2023-12-22T06:49:02;10.88;;;2.42;;
75718;SDS011;64340;48.534;-3.036;2023-12-22T06:51:28;12.95;;;3.05;;
75718;SDS011;64340;48.534;-3.036;2023-12-22T06:53:55;12.40;;;2.75;;
75718;SDS011;64340;48.534;-3.036;2023-12-22T06:56:22;12.90;;;2.75;;
75718;SDS011;64340;48.534;-3.036;2023-12-22T06:58:49;8.60;;;2.95;;
75718;SDS011;64340;48.534;-3.036;2023-12-22T07:01:20;15.77;;;4.40;;
75718;SDS011;64340;48.534;-3.036;2023-12-22T07:03:53;11.63;;;2.85;;
75718;SDS011;64340;48.534;-3.036;2023-12-22T07:06:19;11.70;;;2.90;;
75718;SDS011;64340;48.534;-3.036;2023-12-22T07:09:47;10.20;;;2.72;;
75718;SDS011;64340;48.534;-3.036;2023-12-22T07:11:47;14.82;;;3.28;;
75718;SDS011;64340;48.534;-3.036;2023-12-22T07:14:17;13.55;;;2.83;;
75718;SDS011;64340;48.534;-3.036;2023-12-22T07:16:43;11.27;;;2.58;;
75718;SDS011;64340;48.534;-3.036;2023-12-22T07:19:10;15.63;;;2.85;;
75718;SDS011;64340;48.534;-3.036;2023-12-22T07:21:38;14.50;;;3.15;;
75718;SDS011;64340;48.534;-3.036;2023-12-22T07:24:04;12.35;;;3.22;;
75718;SDS011;64340;48.534;-3.036;2023-12-22T07:26:33;16.67;;;3.92;;
75718;SDS011;64340;48.534;-3.036;2023-12-22T07:28:59;10.50;;;2.40;;
75718;SDS011;64340;48.534;-3.036;2023-12-22T07:31:25;9.60;;;2.40;;
75718;SDS011;64340;48.534;-3.036;2023-12-22T07:33:51;11.55;;;2.63;;
75718;SDS011;64340;48.534;-3.036;2023-12-22T07:36:17;14.23;;;3.25;;
75718;SDS011;64340;48.534;-3.036;2023-12-22T07:38:46;11.98;;;2.70;;
75718;SDS011;64340;48.534;-3.036;2023-12-22T07:41:12;12.32;;;2.72;;
75718;SDS011;64340;48.534;-3.036;2023-12-22T07:43:38;12.73;;;2.65;;
75718;SDS011;64340;48.534;-3.036;2023-12-22T07:46:03;10.30;;;2.13;;
75718;SDS011;64340;48.534;-3.036;2023-12-22T07:48:29;12.45;;;2.22;;
75718;SDS011;64340;48.534;-3.036;2023-12-22T07:50:55;11.75;;;2.60;;
75718;SDS011;64340;48.534;-3.036;2023-12-22T07:53:21;14.50;;;2.83;;
75718;SDS011;64340;48.534;-3.036;2023-12-22T07:55:46;11.88;;;2.40;;
75718;SDS011;64340;48.534;-3.036;2023-12-22T07:58:13;10.48;;;2.40;;
75718;SDS011;64340;48.534;-3.036;2023-12-22T08:00:38;10.27;;;2.42;;
75718;SDS011;64340;48.534;-3.036;2023-12-22T08:03:05;14.65;;;3.50;;
75718;SDS011;64340;48.534;-3.036;2023-12-22T08:05:30;12.57;;;2.90;;
75718;SDS011;64340;48.534;-3.036;2023-12-22T08:07:56;8.57;;;1.92;;
75718;SDS011;64340;48.534;-3.036;2023-12-22T08:10:22;9.38;;;2.47;;
75718;SDS011;64340;48.534;-3.036;2023-12-22T08:12:48;9.07;;;2.50;;
75718;SDS011;64340;48.534;-3.036;2023-12-22T08:15:14;12.95;;;2.17;;
75718;SDS011;64340;48.534;-3.036;2023-12-22T08:17:49;14.40;;;2.97;;
75718;SDS011;64340;48.534;-3.036;2023-12-22T08:20:19;10.57;;;2.50;;
75718;SDS011;64340;48.534;-3.036;2023-12-22T08:22:49;15.05;;;3.05;;
75718;SDS011;64340;48.534;-3.036;2023-12-22T08:25:16;14.52;;;2.47;;
75718;SDS011;64340;48.534;-3.036;2023-12-22T08:27:45;13.27;;;3.13;;
75718;SDS011;64340;48.534;-3.036;2023-12-22T08:30:11;12.57;;;2.47;;
75718;SDS011;64340;48.534;-3.036;2023-12-22T08:32:38;9.82;;;2.10;;
75718;SDS011;64340;48.534;-3.036;2023-12-22T08:35:04;11.85;;;2.55;;
75718;SDS011;64340;48.534;-3.036;2023-12-22T08:37:30;9.40;;;2.53;;
75718;SDS011;64340;48.534;-3.036;2023-12-22T08:39:56;8.35;;;1.67;;
75718;SDS011;64340;48.534;-3.036;2023-12-22T08:42:22;13.55;;;2.58;;
75718;SDS011;64340;48.534;-3.036;2023-12-22T08:44:51;9.75;;;2.20;;
75718;SDS011;64340;48.534;-3.036;2023-12-22T08:47:17;11.00;;;2.92;;
75718;SDS011;64340;48.534;-3.036;2023-12-22T08:49:42;11.35;;;2.40;;
75718;SDS011;64340;48.534;-3.036;2023-12-22T08:52:09;11.00;;;2.80;;
75718;SDS011;64340;48.534;-3.036;2023-12-22T08:54:35;12.85;;;2.50;;
75718;SDS011;64340;48.534;-3.036;2023-12-22T08:57:04;14.63;;;2.70;;
75718;SDS011;64340;48.534;-3.036;2023-12-22T08:59:29;11.27;;;2.10;;
75718;SDS011;64340;48.534;-3.036;2023-12-22T09:01:55;14.48;;;2.33;;
75718;SDS011;64340;48.534;-3.036;2023-12-22T09:04:21;12.57;;;2.60;;
75718;SDS011;64340;48.534;-3.036;2023-12-22T09:06:48;6.68;;;1.63;;
75718;SDS011;64340;48.534;-3.036;2023-12-22T09:09:14;12.20;;;2.20;;
75718;SDS011;64340;48.534;-3.036;2023-12-22T09:11:40;9.80;;;1.90;;
75718;SDS011;64340;48.534;-3.036;2023-12-22T09:14:06;10.18;;;1.67;;
75718;SDS011;64340;48.534;-3.036;2023-12-22T09:16:35;7.47;;;2.13;;
75718;SDS011;64340;48.534;-3.036;2023-12-22T09:19:01;11.15;;;1.90;;
75718;SDS011;64340;48.534;-3.036;2023-12-22T09:21:27;13.65;;;2.28;;
75718;SDS011;64340;48.534;-3.036;2023-12-22T09:23:53;24.63;;;9.05;;
75718;SDS011;64340;48.534;-3.036;2023-12-22T09:26:19;33.47;;;16.30;;
75718;SDS011;64340;48.534;-3.036;2023-12-22T09:28:45;37.45;;;18.67;;
75718;SDS011;64340;48.534;-3.036;2023-12-22T09:31:11;42.55;;;17.63;;
75718;SDS011;64340;48.534;-3.036;2023-12-22T09:33:40;29.88;;;12.45;;
75718;SDS011;64340;48.534;-3.036;2023-12-22T09:36:07;22.02;;;7.35;;
75718;SDS011;64340;48.534;-3.036;2023-12-22T09:38:33;17.65;;;6.65;;
75718;SDS011;64340;48.534;-3.036;2023-12-22T09:40:59;14.15;;;5.15;;
75718;SDS011;64340;48.534;-3.036;2023-12-22T09:43:26;17.63;;;5.53;;
75718;SDS011;64340;48.534;-3.036;2023-12-22T09:45:52;16.50;;;5.68;;
75718;SDS011;64340;48.534;-3.036;2023-12-22T09:48:18;18.70;;;6.15;;
75718;SDS011;64340;48.534;-3.036;2023-12-22T09:50:52;14.30;;;5.88;;
75718;SDS011;64340;48.534;-3.036;2023-12-22T09:53:18;16.38;;;5.97;;
75718;SDS011;64340;48.534;-3.036;2023-12-22T09:55:46;16.60;;;5.30;;
75718;SDS011;64340;48.534;-3.036;2023-12-22T09:58:14;13.40;;;4.82;;
75718;SDS011;64340;48.534;-3.036;2023-12-22T10:00:41;14.10;;;4.53;;
75718;SDS011;64340;48.534;-3.036;2023-12-22T10:03:07;18.10;;;5.88;;
75718;SDS011;64340;48.534;-3.036;2023-12-22T10:05:35;15.73;;;4.05;;
75718;SDS011;64340;48.534;-3.036;2023-12-22T10:08:02;9.70;;;3.60;;
75718;SDS011;64340;48.534;-3.036;2023-12-22T10:10:31;9.57;;;3.40;;
75718;SDS011;64340;48.534;-3.036;2023-12-22T10:12:58;12.70;;;4.30;;
75718;SDS011;64340;48.534;-3.036;2023-12-22T10:15:25;10.98;;;3.22;;
75718;SDS011;64340;48.534;-3.036;2023-12-22T10:17:51;7.45;;;2.70;;
75718;SDS011;64340;48.534;-3.036;2023-12-22T10:20:18;7.32;;;2.85;;
75718;SDS011;64340;48.534;-3.036;2023-12-22T10:22:44;8.95;;;3.08;;
75718;SDS011;64340;48.534;-3.036;2023-12-22T10:25:11;9.80;;;2.90;;
75718;SDS011;64340;48.534;-3.036;2023-12-22T10:27:41;10.63;;;3.20;;
75718;SDS011;64340;48.534;-3.036;2023-12-22T10:30:08;8.82;;;2.58;;
75718;SDS011;64340;48.534;-3.036;2023-12-22T10:32:39;10.48;;;2.75;;
75718;SDS011;64340;48.534;-3.036;2023-12-22T10:35:08;10.90;;;2.50;;
75718;SDS011;64340;48.534;-3.036;2023-12-22T10:37:34;7.25;;;3.05;;
75718;SDS011;64340;48.534;-3.036;2023-12-22T10:40:03;7.18;;;2.63;;
75718;SDS011;64340;48.534;-3.036;2023-12-22T10:44:56;8.15;;;2.13;;
75718;SDS011;64340;48.534;-3.036;2023-12-22T10:47:22;7.28;;;2.17;;
75718;SDS011;64340;48.534;-3.036;2023-12-22T10:49:48;8.18;;;2.28;;
75718;SDS011;64340;48.534;-3.036;2023-12-22T10:52:17;7.28;;;2.50;;
75718;SDS011;64340;48.534;-3.036;2023-12-22T10:54:44;6.28;;;2.08;;
75718;SDS011;64340;48.534;-3.036;2023-12-22T10:57:10;7.43;;;2.35;;
75718;SDS011;64340;48.534;-3.036;2023-12-22T10:59:38;6.63;;;2.20;;
75718;SDS011;64340;48.534;-3.036;2023-12-22T11:02:10;6.80;;;2.28;;
75718;SDS011;64340;48.534;-3.036;2023-12-22T11:04:44;6.35;;;2.40;;
75718;SDS011;64340;48.534;-3.036;2023-12-22T11:07:20;7.80;;;1.85;;
75718;SDS011;64340;48.534;-3.036;2023-12-22T11:09:51;5.82;;;1.88;;
75718;SDS011;64340;48.534;-3.036;2023-12-22T11:12:20;9.50;;;2.70;;
75718;SDS011;64340;48.534;-3.036;2023-12-22T11:14:48;9.98;;;2.88;;
75718;SDS011;64340;48.534;-3.036;2023-12-22T11:17:18;5.13;;;2.00;;
75718;SDS011;64340;48.534;-3.036;2023-12-22T11:19:46;5.63;;;1.73;;
75718;SDS011;64340;48.534;-3.036;2023-12-22T11:22:17;6.35;;;1.90;;
75718;SDS011;64340;48.534;-3.036;2023-12-22T11:24:45;5.90;;;1.48;;
75718;SDS011;64340;48.534;-3.036;2023-12-22T11:27:13;6.70;;;1.58;;
75718;SDS011;64340;48.534;-3.036;2023-12-22T11:29:45;4.22;;;1.77;;
75718;SDS011;64340;48.534;-3.036;2023-12-22T11:32:15;8.82;;;2.28;;
75718;SDS011;64340;48.534;-3.036;2023-12-22T11:34:44;6.90;;;1.80;;
75718;SDS011;64340;48.534;-3.036;2023-12-22T11:37:12;5.22;;;1.38;;
75718;SDS011;64340;48.534;-3.036;2023-12-22T11:39:40;7.70;;;1.65;;
75718;SDS011;64340;48.534;-3.036;2023-12-22T11:42:20;6.35;;;1.88;;
75718;SDS011;64340;48.534;-3.036;2023-12-22T11:44:49;6.03;;;1.58;;
75718;SDS011;64340;48.534;-3.036;2023-12-22T11:47:15;5.22;;;2.00;;
75718;SDS011;64340;48.534;-3.036;2023-12-22T11:49:40;5.93;;;1.30;;
75718;SDS011;64340;48.534;-3.036;2023-12-22T11:52:10;5.45;;;1.27;;
75718;SDS011;64340;48.534;-3.036;2023-12-22T11:59:57;6.53;;;1.25;;
75718;SDS011;64340;48.534;-3.036;2023-12-22T12:02:26;7.00;;;1.67;;
75718;SDS011;64340;48.534;-3.036;2023-12-22T12:04:52;5.22;;;1.17;;
75718;SDS011;64340;48.534;-3.036;2023-12-22T12:10:14;6.82;;;1.30;;
75718;SDS011;64340;48.534;-3.036;2023-12-22T12:13:05;7.35;;;1.75;;
75718;SDS011;64340;48.534;-3.036;2023-12-22T12:15:33;6.95;;;2.05;;
75718;SDS011;64340;48.534;-3.036;2023-12-22T12:18:00;6.72;;;1.33;;
75718;SDS011;64340;48.534;-3.036;2023-12-22T12:20:26;5.85;;;1.30;;
75718;SDS011;64340;48.534;-3.036;2023-12-22T12:22:52;5.35;;;1.40;;
75718;SDS011;64340;48.534;-3.036;2023-12-22T12:25:21;5.93;;;1.48;;
75718;SDS011;64340;48.534;-3.036;2023-12-22T12:27:49;5.78;;;1.17;;
75718;SDS011;64340;48.534;-3.036;2023-12-22T12:30:25;7.90;;;1.45;;
75718;SDS011;64340;48.534;-3.036;2023-12-22T12:32:51;9.88;;;1.63;;
75718;SDS011;64340;48.534;-3.036;2023-12-22T12:35:18;11.07;;;1.60;;
75718;SDS011;64340;48.534;-3.036;2023-12-22T12:37:44;13.15;;;1.98;;
75718;SDS011;64340;48.534;-3.036;2023-12-22T12:40:13;16.85;;;1.90;;
75718;SDS011;64340;48.534;-3.036;2023-12-22T12:42:43;14.50;;;1.50;;
75718;SDS011;64340;48.534;-3.036;2023-12-22T12:45:09;20.60;;;2.58;;
75718;SDS011;64340;48.534;-3.036;2023-12-22T12:47:35;12.55;;;1.92;;
75718;SDS011;64340;48.534;-3.036;2023-12-22T12:50:01;15.10;;;1.60;;
75718;SDS011;64340;48.534;-3.036;2023-12-22T12:52:28;12.98;;;1.85;;
75718;SDS011;64340;48.534;-3.036;2023-12-22T12:54:54;13.68;;;2.00;;
75718;SDS011;64340;48.534;-3.036;2023-12-22T12:57:21;14.57;;;1.63;;
75718;SDS011;64340;48.534;-3.036;2023-12-22T12:59:47;10.20;;;1.20;;
75718;SDS011;64340;48.534;-3.036;2023-12-22T13:02:17;8.55;;;1.38;;
75718;SDS011;64340;48.534;-3.036;2023-12-22T13:04:44;7.90;;;1.70;;
75718;SDS011;64340;48.534;-3.036;2023-12-22T13:07:10;10.27;;;1.55;;
75718;SDS011;64340;48.534;-3.036;2023-12-22T13:09:38;5.22;;;1.10;;
75718;SDS011;64340;48.534;-3.036;2023-12-22T13:12:04;6.30;;;1.40;;
75718;SDS011;64340;48.534;-3.036;2023-12-22T13:14:31;5.85;;;1.25;;
75718;SDS011;64340;48.534;-3.036;2023-12-22T13:16:57;6.10;;;1.10;;
75718;SDS011;64340;48.534;-3.036;2023-12-22T13:19:23;9.40;;;1.38;;
75718;SDS011;64340;48.534;-3.036;2023-12-22T13:21:50;3.92;;;1.08;;
75718;SDS011;64340;48.534;-3.036;2023-12-22T13:24:17;6.85;;;1.17;;
75718;SDS011;64340;48.534;-3.036;2023-12-22T13:26:43;3.75;;;0.60;;
75718;SDS011;64340;48.534;-3.036;2023-12-22T13:29:11;5.03;;;1.10;;
75718;SDS011;64340;48.534;-3.036;2023-12-22T13:31:41;6.20;;;1.10;;
75718;SDS011;64340;48.534;-3.036;2023-12-22T13:34:11;6.47;;;0.90;;
75718;SDS011;64340;48.534;-3.036;2023-12-22T13:36:39;3.67;;;1.50;;
75718;SDS011;64340;48.534;-3.036;2023-12-22T13:39:07;3.30;;;1.10;;
75718;SDS011;64340;48.534;-3.036;2023-12-22T13:41:34;4.13;;;0.75;;
75718;SDS011;64340;48.534;-3.036;2023-12-22T13:44:04;4.05;;;0.90;;
75718;SDS011;64340;48.534;-3.036;2023-12-22T13:46:34;3.08;;;0.68;;
75718;SDS011;64340;48.534;-3.036;2023-12-22T13:49:01;3.50;;;0.55;;
75718;SDS011;64340;48.534;-3.036;2023-12-22T13:51:43;3.20;;;0.90;;
75718;SDS011;64340;48.534;-3.036;2023-12-22T13:54:14;2.72;;;0.52;;
75718;SDS011;64340;48.534;-3.036;2023-12-22T13:56:42;2.75;;;0.50;;
75718;SDS011;64340;48.534;-3.036;2023-12-22T13:59:11;4.68;;;0.90;;
75718;SDS011;64340;48.534;-3.036;2023-12-22T14:01:37;4.45;;;0.57;;
75718;SDS011;64340;48.534;-3.036;2023-12-22T14:04:02;3.92;;;0.73;;
75718;SDS011;64340;48.534;-3.036;2023-12-22T14:06:28;5.70;;;0.80;;
75718;SDS011;64340;48.534;-3.036;2023-12-22T14:08:55;3.30;;;0.57;;
75718;SDS011;64340;48.534;-3.036;2023-12-22T14:11:21;3.30;;;0.90;;
75718;SDS011;64340;48.534;-3.036;2023-12-22T14:13:47;4.15;;;0.75;;
75718;SDS011;64340;48.534;-3.036;2023-12-22T14:16:14;4.13;;;0.70;;
75718;SDS011;64340;48.534;-3.036;2023-12-22T14:18:41;3.40;;;0.50;;
75718;SDS011;64340;48.534;-3.036;2023-12-22T14:21:07;3.67;;;0.65;;
75718;SDS011;64340;48.534;-3.036;2023-12-22T14:23:33;5.00;;;0.88;;
75718;SDS011;64340;48.534;-3.036;2023-12-22T14:25:59;3.78;;;0.88;;
75718;SDS011;64340;48.534;-3.036;2023-12-22T14:28:24;5.85;;;0.73;;
75718;SDS011;64340;48.534;-3.036;2023-12-22T14:30:50;3.80;;;0.75;;
75718;SDS011;64340;48.534;-3.036;2023-12-22T14:33:16;2.88;;;0.60;;
75718;SDS011;64340;48.534;-3.036;2023-12-22T14:35:41;4.90;;;0.73;;
75718;SDS011;64340;48.534;-3.036;2023-12-22T14:38:07;4.68;;;0.90;;
75718;SDS011;64340;48.534;-3.036;2023-12-22T14:40:34;8.90;;;1.20;;
75718;SDS011;64340;48.534;-3.036;2023-12-22T14:42:59;7.78;;;1.15;;